Time;durP1;ratioP1;P1;durP2;ratioP2;P2;SDS_P1;SDS_P2;PMS_P1;PMS_P2;Temp;Humidity;BMP_temperature;BMP_pressure;BME280_temperature;BME280_humidity;BME280_pressure;Samples;Min_cycle;Max_cycle;Signal;HPM_P1;HPM_P2
2021/08/15 00:01:12;;;;;;;12.90;8.50;;;23.80;71.00;;;;;;4986233;28;20045;-64
2021/08/15 00:03:38;;;;;;;9.68;8.00;;;23.80;71.20;;;;;;4987318;28;20468;-64
2021/08/15 00:06:03;;;;;;;11.27;8.88;;;23.80;71.10;;;;;;4986761;28;20042;-64
2021/08/15 00:08:29;;;;;;;9.52;8.45;;;23.80;71.10;;;;;;5001339;28;20570;-63
2021/08/15 00:10:56;;;;;;;11.10;8.07;;;23.80;71.10;;;;;;4984020;28;20065;-64
2021/08/15 00:13:22;;;;;;;9.02;8.13;;;23.80;71.10;;;;;;4987960;28;20109;-64
2021/08/15 00:15:48;;;;;;;11.40;7.97;;;23.70;71.00;;;;;;4987712;28;20126;-64
2021/08/15 00:18:14;;;;;;;9.68;8.10;;;23.70;70.80;;;;;;4984280;28;20077;-64
2021/08/15 00:20:39;;;;;;;9.73;8.40;;;23.70;71.00;;;;;;4982922;28;20113;-64
2021/08/15 00:23:05;;;;;;;10.65;8.30;;;23.70;71.00;;;;;;5002509;28;20876;-64
2021/08/15 00:25:31;;;;;;;13.75;9.00;;;23.60;71.00;;;;;;4987129;28;20054;-63
2021/08/15 00:27:56;;;;;;;10.48;8.15;;;23.60;71.10;;;;;;4987793;28;20650;-64
2021/08/15 00:30:22;;;;;;;12.40;9.20;;;23.60;71.30;;;;;;4986651;28;20030;-63
2021/08/15 00:32:48;;;;;;;9.68;8.68;;;23.50;71.40;;;;;;4986858;28;20498;-64
2021/08/15 00:35:14;;;;;;;11.43;9.27;;;23.40;71.70;;;;;;4985147;28;20068;-64
2021/08/15 00:37:40;;;;;;;11.07;8.57;;;23.30;72.00;;;;;;5000715;28;20506;-64
2021/08/15 00:40:06;;;;;;;11.20;8.73;;;23.20;73.00;;;;;;4988160;28;20026;-64
2021/08/15 00:42:32;;;;;;;11.57;8.48;;;23.20;72.50;;;;;;5001470;28;20544;-64
2021/08/15 00:44:58;;;;;;;11.23;8.93;;;23.10;72.70;;;;;;4984640;28;20038;-64
2021/08/15 00:47:24;;;;;;;10.30;8.60;;;23.10;73.00;;;;;;4984275;28;20035;-63
2021/08/15 00:49:50;;;;;;;10.65;8.80;;;23.00;73.20;;;;;;4984850;28;20023;-64
2021/08/15 00:52:15;;;;;;;10.10;8.40;;;23.00;73.40;;;;;;4986093;28;20056;-64
2021/08/15 00:54:41;;;;;;;10.10;7.82;;;22.90;73.40;;;;;;4986592;28;20045;-63
2021/08/15 00:57:08;;;;;;;11.70;8.77;;;22.90;73.40;;;;;;4985043;28;20117;-64
2021/08/15 00:59:39;;;;;;;10.05;8.32;;;22.90;73.70;;;;;;4985358;28;20030;-64
2021/08/15 01:02:07;;;;;;;8.88;7.97;;;22.90;74.10;;;;;;4977275;28;20045;-63
2021/08/15 01:04:35;;;;;;;9.20;8.20;;;22.90;73.90;;;;;;4983508;28;20477;-64
2021/08/15 01:07:03;;;;;;;10.55;8.63;;;22.80;73.90;;;;;;4982294;28;20114;-64
2021/08/15 01:09:29;;;;;;;10.88;8.57;;;22.80;73.90;;;;;;4986051;28;20042;-63
2021/08/15 01:11:54;;;;;;;9.50;8.30;;;22.80;74.00;;;;;;4980826;28;20118;-64
2021/08/15 01:14:21;;;;;;;9.98;8.15;;;22.70;74.20;;;;;;5001820;28;20065;-63
2021/08/15 01:16:47;;;;;;;9.57;8.52;;;22.70;74.20;;;;;;4986758;28;20042;-64
2021/08/15 01:19:14;;;;;;;12.73;8.32;;;22.70;74.40;;;;;;4988023;28;20027;-64
2021/08/15 01:21:41;;;;;;;11.48;8.60;;;22.70;74.40;;;;;;4978602;28;20541;-64
2021/08/15 01:24:07;;;;;;;10.35;8.38;;;22.70;74.40;;;;;;4986698;28;20085;-64
2021/08/15 01:26:33;;;;;;;10.60;8.50;;;22.70;74.40;;;;;;4987447;28;20034;-63
2021/08/15 01:28:58;;;;;;;10.57;8.05;;;22.70;74.30;;;;;;4988630;28;20034;-63
2021/08/15 01:31:24;;;;;;;11.30;8.43;;;22.60;74.00;;;;;;4986387;28;20049;-63
2021/08/15 01:33:51;;;;;;;10.48;7.90;;;22.60;74.00;;;;;;5002271;28;20502;-64
2021/08/15 01:36:18;;;;;;;10.20;8.20;;;22.60;74.00;;;;;;5001207;28;20048;-64
2021/08/15 01:38:45;;;;;;;8.93;8.05;;;22.60;74.30;;;;;;4987216;28;20036;-64
2021/08/15 01:41:10;;;;;;;9.45;7.95;;;22.60;74.00;;;;;;4988516;28;20038;-63
2021/08/15 01:44:06;;;;;;;10.23;8.00;;;22.60;74.10;;;;;;4983344;28;20044;-63
2021/08/15 01:46:33;;;;;;;12.02;8.45;;;22.60;74.90;;;;;;4984729;28;20038;-63
2021/08/15 01:49:00;;;;;;;11.02;8.57;;;22.60;74.00;;;;;;5002053;28;20488;-64
2021/08/15 01:51:27;;;;;;;11.82;8.50;;;22.60;74.20;;;;;;4985885;28;20034;-64
2021/08/15 01:53:54;;;;;;;11.25;8.38;;;22.50;74.20;;;;;;4985277;28;20114;-64
2021/08/15 01:56:21;;;;;;;9.32;8.30;;;22.50;74.30;;;;;;4986496;28;20058;-63
2021/08/15 01:58:46;;;;;;;9.73;8.32;;;22.40;74.40;;;;;;4987041;28;20525;-64
2021/08/15 02:01:20;;;;;;;10.02;8.93;;;22.40;74.60;;;;;;4986484;28;20035;-63
2021/08/15 02:03:47;;;;;;;9.15;8.07;;;22.40;75.10;;;;;;4986808;28;20053;-63
2021/08/15 02:06:13;;;;;;;10.45;8.38;;;22.30;74.70;;;;;;5001654;28;20026;-63
2021/08/15 02:08:39;;;;;;;12.35;8.88;;;22.20;74.70;;;;;;4987716;28;20061;-64
2021/08/15 02:11:05;;;;;;;9.70;8.70;;;22.20;74.90;;;;;;4982482;28;20058;-64
2021/08/15 02:13:30;;;;;;;12.65;8.50;;;22.10;75.00;;;;;;4984394;28;20034;-64
2021/08/15 02:15:56;;;;;;;10.45;8.40;;;22.10;75.10;;;;;;5000906;28;20122;-63
2021/08/15 02:18:22;;;;;;;10.25;8.73;;;22.10;75.30;;;;;;4986560;28;20142;-63
2021/08/15 02:20:47;;;;;;;9.25;7.90;;;22.00;75.30;;;;;;5001407;28;20461;-64
2021/08/15 02:23:13;;;;;;;12.35;8.57;;;22.00;75.30;;;;;;4986539;28;20077;-64
2021/08/15 02:25:39;;;;;;;11.63;8.35;;;22.00;75.40;;;;;;5002610;28;20042;-63
2021/08/15 02:28:05;;;;;;;10.93;8.32;;;22.00;75.50;;;;;;4986748;28;20406;-64
2021/08/15 02:30:31;;;;;;;11.68;8.63;;;21.90;75.60;;;;;;4985649;28;20130;-63
2021/08/15 02:32:57;;;;;;;12.45;8.48;;;21.90;75.70;;;;;;4985359;28;20508;-64
2021/08/15 02:35:25;;;;;;;9.73;8.10;;;21.90;75.60;;;;;;4986089;28;20110;-63
2021/08/15 02:37:53;;;;;;;11.07;8.40;;;21.90;75.80;;;;;;4986497;28;20030;-64
2021/08/15 02:40:20;;;;;;;12.32;9.05;;;21.80;75.80;;;;;;5002447;28;20034;-63
2021/08/15 02:42:49;;;;;;;10.30;8.35;;;21.80;76.00;;;;;;4985331;28;20088;-64
2021/08/15 02:45:17;;;;;;;10.25;7.97;;;21.80;76.00;;;;;;4983009;28;20115;-63
2021/08/15 02:47:43;;;;;;;9.55;8.07;;;21.80;75.90;;;;;;4983989;28;20041;-63
2021/08/15 02:50:10;;;;;;;9.90;8.55;;;21.70;75.90;;;;;;4986835;28;20026;-63
2021/08/15 02:52:36;;;;;;;12.23;8.70;;;21.70;76.10;;;;;;4983626;28;20375;-63
2021/08/15 02:55:04;;;;;;;11.70;9.20;;;21.70;76.10;;;;;;4987401;28;20038;-63
2021/08/15 02:57:30;;;;;;;9.57;8.55;;;21.70;76.30;;;;;;5001101;28;20081;-63
2021/08/15 02:59:56;;;;;;;9.90;8.27;;;21.70;76.50;;;;;;4985964;28;20030;-63
2021/08/15 03:02:22;;;;;;;9.85;8.07;;;21.60;76.30;;;;;;4983029;28;20038;-63
2021/08/15 03:04:47;;;;;;;9.18;8.25;;;21.60;76.30;;;;;;4984916;28;20037;-64
2021/08/15 03:07:15;;;;;;;10.00;8.52;;;21.60;76.50;;;;;;4986213;28;20096;-63
2021/08/15 03:09:41;;;;;;;9.93;8.18;;;21.60;76.60;;;;;;4986718;28;20518;-63
2021/08/15 03:12:07;;;;;;;9.75;8.18;;;21.60;76.40;;;;;;4981343;28;20057;-63
2021/08/15 03:14:32;;;;;;;9.38;8.43;;;21.60;77.20;;;;;;5001065;28;20580;-63
2021/08/15 03:16:58;;;;;;;9.27;7.97;;;21.60;76.30;;;;;;4985254;28;20461;-63
2021/08/15 03:19:24;;;;;;;10.68;8.98;;;21.70;76.20;;;;;;4986887;28;20037;-63
2021/08/15 03:21:49;;;;;;;9.82;7.80;;;21.70;75.90;;;;;;4984091;28;20089;-64
2021/08/15 03:24:15;;;;;;;11.93;7.88;;;21.70;75.80;;;;;;4985391;28;20034;-63
2021/08/15 03:26:43;;;;;;;10.63;8.20;;;21.70;76.60;;;;;;4985135;28;20062;-63
2021/08/15 03:29:13;;;;;;;10.30;8.35;;;21.70;75.80;;;;;;4986049;28;20038;-63
2021/08/15 03:31:39;;;;;;;10.55;8.10;;;21.70;76.00;;;;;;4986155;28;20073;-63
2021/08/15 03:34:06;;;;;;;12.70;8.90;;;21.70;75.90;;;;;;4986611;28;20026;-63
2021/08/15 03:36:32;;;;;;;11.77;9.07;;;21.70;76.10;;;;;;4987758;28;20505;-63
2021/08/15 03:38:57;;;;;;;11.32;9.07;;;21.70;76.40;;;;;;4989106;28;20043;-63
2021/08/15 03:41:23;;;;;;;11.35;9.13;;;21.60;76.50;;;;;;4990590;28;20107;-63
2021/08/15 03:43:49;;;;;;;8.77;7.88;;;21.60;77.10;;;;;;4987663;28;20080;-64
2021/08/15 03:46:14;;;;;;;8.93;8.02;;;21.50;77.30;;;;;;4988459;28;20479;-63
2021/08/15 03:48:40;;;;;;;11.20;8.50;;;21.50;76.50;;;;;;5004380;28;20096;-63
2021/08/15 03:51:06;;;;;;;11.30;7.93;;;21.50;76.50;;;;;;4987956;28;20042;-63
2021/08/15 03:53:31;;;;;;;9.00;8.10;;;21.50;76.50;;;;;;4989720;28;20100;-63
2021/08/15 03:55:57;;;;;;;8.38;7.30;;;21.50;76.40;;;;;;4988762;28;20084;-63
2021/08/15 03:58:23;;;;;;;8.95;7.53;;;21.50;76.30;;;;;;4988538;28;20088;-63
2021/08/15 04:00:48;;;;;;;9.20;7.55;;;21.50;76.30;;;;;;4986011;28;20405;-63
2021/08/15 04:03:14;;;;;;;10.32;8.32;;;21.50;76.20;;;;;;4988529;28;20133;-63
2021/08/15 04:05:41;;;;;;;10.90;7.40;;;21.50;76.10;;;;;;5000633;28;20810;-64
2021/08/15 04:08:07;;;;;;;10.30;8.55;;;21.50;76.10;;;;;;4989809;28;20039;-63
2021/08/15 04:10:34;;;;;;;9.38;8.13;;;21.40;76.10;;;;;;4985244;28;20126;-63
2021/08/15 04:12:59;;;;;;;10.32;8.38;;;21.40;76.00;;;;;;4988155;28;20149;-64
2021/08/15 04:15:26;;;;;;;9.02;8.13;;;21.40;76.00;;;;;;5003592;28;20113;-63
2021/08/15 04:17:51;;;;;;;9.23;8.25;;;21.40;76.20;;;;;;4987367;28;20042;-63
2021/08/15 04:20:17;;;;;;;9.77;8.77;;;21.20;76.30;;;;;;4987495;28;20026;-63
2021/08/15 04:22:44;;;;;;;10.95;9.07;;;21.20;76.50;;;;;;4988222;28;20406;-63
2021/08/15 04:25:10;;;;;;;10.55;8.60;;;21.20;76.70;;;;;;4989618;28;20497;-63
2021/08/15 04:27:35;;;;;;;10.40;8.25;;;21.10;76.80;;;;;;4988300;28;20034;-63
2021/08/15 04:30:01;;;;;;;10.50;8.52;;;21.10;77.00;;;;;;4988333;28;20038;-63
2021/08/15 04:32:27;;;;;;;8.48;7.53;;;21.00;77.20;;;;;;4984708;28;20117;-63
2021/08/15 04:34:53;;;;;;;10.52;8.52;;;21.00;77.30;;;;;;5001524;28;20039;-63
2021/08/15 04:37:18;;;;;;;11.43;8.55;;;21.00;77.30;;;;;;4988227;28;20062;-64
2021/08/15 04:39:44;;;;;;;8.77;7.70;;;21.00;77.40;;;;;;4988444;28;20494;-63
2021/08/15 04:42:11;;;;;;;10.23;8.63;;;21.00;77.30;;;;;;4988958;28;20034;-63
2021/08/15 04:44:37;;;;;;;9.68;8.55;;;21.00;77.50;;;;;;4986073;28;20049;-63
2021/08/15 04:47:03;;;;;;;9.52;8.32;;;21.00;77.50;;;;;;4987382;28;20027;-63
2021/08/15 04:49:28;;;;;;;12.23;8.98;;;21.00;77.70;;;;;;4989476;28;20061;-63
2021/08/15 04:51:55;;;;;;;10.70;8.57;;;21.00;77.70;;;;;;4986446;28;20065;-63
2021/08/15 04:54:26;;;;;;;9.77;8.55;;;21.00;77.90;;;;;;4988851;28;20034;-63
2021/08/15 04:56:52;;;;;;;10.82;8.93;;;21.00;77.90;;;;;;4988267;28;20109;-63
2021/08/15 04:59:17;;;;;;;12.05;8.38;;;21.00;77.90;;;;;;4989228;28;20174;-63
2021/08/15 05:01:43;;;;;;;8.75;7.95;;;21.00;78.10;;;;;;4987990;28;20649;-63
2021/08/15 05:04:09;;;;;;;9.50;8.50;;;21.00;78.00;;;;;;4988059;28;20030;-63
2021/08/15 05:06:34;;;;;;;9.80;8.77;;;21.00;78.00;;;;;;4986373;28;20034;-63
2021/08/15 05:09:00;;;;;;;10.00;9.00;;;21.00;78.10;;;;;;5003194;28;20038;-63
2021/08/15 05:11:25;;;;;;;12.18;8.40;;;21.00;78.20;;;;;;4984055;28;20041;-63
2021/08/15 05:13:51;;;;;;;9.55;8.57;;;21.10;78.20;;;;;;4987376;28;20042;-63
2021/08/15 05:16:17;;;;;;;10.40;8.05;;;21.10;78.30;;;;;;4988514;28;20614;-63
2021/08/15 05:18:42;;;;;;;8.70;7.90;;;21.10;78.30;;;;;;5003377;28;20035;-63
2021/08/15 05:21:08;;;;;;;9.55;8.55;;;21.10;78.40;;;;;;4987483;28;20734;-63
2021/08/15 05:23:34;;;;;;;10.15;8.43;;;21.10;78.40;;;;;;4986430;28;20096;-65
2021/08/15 05:26:00;;;;;;;8.98;7.75;;;21.10;78.60;;;;;;4987121;28;20061;-66
2021/08/15 05:28:25;;;;;;;9.40;8.40;;;21.20;78.60;;;;;;4988266;28;20034;-63
2021/08/15 05:30:51;;;;;;;9.32;8.43;;;21.20;78.40;;;;;;4988161;28;20066;-63
2021/08/15 05:33:17;;;;;;;9.52;8.52;;;21.20;78.50;;;;;;4980413;28;20036;-63
2021/08/15 05:35:42;;;;;;;9.68;8.48;;;21.40;78.70;;;;;;4984078;28;20034;-63
2021/08/15 05:38:08;;;;;;;9.55;8.45;;;21.40;78.70;;;;;;4986225;28;20041;-64
2021/08/15 05:40:34;;;;;;;9.13;8.23;;;21.40;78.60;;;;;;4987482;28;20042;-63
2021/08/15 05:42:59;;;;;;;9.70;8.68;;;21.40;78.40;;;;;;4987232;28;20107;-63
2021/08/15 05:45:25;;;;;;;11.05;9.15;;;21.50;78.50;;;;;;4985925;28;20030;-63
2021/08/15 05:47:51;;;;;;;11.52;9.32;;;21.50;78.80;;;;;;4981926;28;20043;-63
2021/08/15 05:50:17;;;;;;;12.32;9.57;;;21.60;79.00;;;;;;4983530;28;20031;-63
2021/08/15 05:52:42;;;;;;;10.68;9.60;;;21.60;79.00;;;;;;4984695;28;20042;-63
2021/08/15 05:55:08;;;;;;;12.05;9.70;;;21.70;78.90;;;;;;4985143;28;20401;-63
2021/08/15 05:57:34;;;;;;;12.05;10.73;;;21.70;79.10;;;;;;4986260;28;20089;-63
2021/08/15 06:00:00;;;;;;;14.90;11.45;;;21.70;78.80;;;;;;4986048;28;20057;-63
2021/08/15 06:02:25;;;;;;;12.20;10.63;;;21.80;78.70;;;;;;4977399;28;20031;-63
2021/08/15 06:04:51;;;;;;;13.00;11.30;;;21.80;78.90;;;;;;4998905;28;20034;-63
2021/08/15 06:07:17;;;;;;;11.52;10.32;;;21.90;79.00;;;;;;4982133;28;20104;-63
2021/08/15 06:09:42;;;;;;;14.10;10.48;;;21.90;79.20;;;;;;4987273;28;20088;-63
2021/08/15 06:12:08;;;;;;;19.80;11.13;;;22.00;80.00;;;;;;4980082;28;20736;-63
2021/08/15 06:14:35;;;;;;;12.55;11.05;;;22.00;79.30;;;;;;4984938;28;20561;-63
2021/08/15 06:17:01;;;;;;;12.27;10.63;;;22.00;79.40;;;;;;4986359;28;20038;-63
2021/08/15 06:19:27;;;;;;;15.15;11.50;;;22.10;79.40;;;;;;4983242;28;20129;-63
2021/08/15 06:21:52;;;;;;;13.10;11.40;;;22.10;79.60;;;;;;4985924;28;20153;-63
2021/08/15 06:24:18;;;;;;;11.38;10.15;;;22.20;79.80;;;;;;4983157;28;20121;-63
2021/08/15 06:26:43;;;;;;;15.00;10.13;;;22.20;79.30;;;;;;4983994;28;20049;-63
2021/08/15 06:29:09;;;;;;;11.50;10.30;;;22.30;79.10;;;;;;4984407;28;20030;-64
2021/08/15 06:31:35;;;;;;;11.35;10.05;;;22.30;78.90;;;;;;4974420;28;20710;-63
2021/08/15 06:34:00;;;;;;;12.75;10.30;;;22.40;78.90;;;;;;4967696;28;20126;-63
2021/08/15 06:36:26;;;;;;;11.63;9.85;;;22.40;78.90;;;;;;4974838;28;20130;-63
2021/08/15 06:38:52;;;;;;;13.57;9.77;;;22.40;78.70;;;;;;4955111;28;21282;-63
2021/08/15 06:41:19;;;;;;;11.85;10.55;;;22.50;78.70;;;;;;4988932;28;20596;-64
2021/08/15 06:43:44;;;;;;;14.70;10.90;;;22.60;78.80;;;;;;4970982;28;20061;-63
2021/08/15 06:46:11;;;;;;;16.33;10.32;;;22.60;78.70;;;;;;4971225;28;20526;-64
2021/08/15 06:48:36;;;;;;;11.63;10.32;;;22.70;78.80;;;;;;4973550;28;20253;-64
2021/08/15 06:51:03;;;;;;;14.00;10.45;;;22.70;78.70;;;;;;4976966;28;20405;-63
2021/08/15 06:53:30;;;;;;;12.10;10.48;;;22.80;78.60;;;;;;4975209;28;20030;-64
2021/08/15 06:55:58;;;;;;;11.88;10.45;;;22.90;78.60;;;;;;4968664;28;20121;-64
2021/08/15 06:58:24;;;;;;;13.25;10.10;;;22.90;78.40;;;;;;4974149;28;20061;-63
2021/08/15 07:00:50;;;;;;;12.93;9.25;;;23.00;78.40;;;;;;4972709;28;20074;-63
2021/08/15 07:03:15;;;;;;;12.85;9.25;;;23.00;78.50;;;;;;4972614;28;20134;-64
2021/08/15 07:05:41;;;;;;;11.15;9.50;;;23.10;78.60;;;;;;4975603;28;20041;-63
2021/08/15 07:08:06;;;;;;;9.45;8.48;;;23.20;78.40;;;;;;4973959;28;20584;-64
2021/08/15 07:10:32;;;;;;;10.05;9.05;;;23.20;78.20;;;;;;4975572;28;20039;-64
2021/08/15 07:12:58;;;;;;;10.73;9.43;;;23.30;77.90;;;;;;4966909;28;20038;-63
2021/08/15 07:15:28;;;;;;;11.93;8.82;;;23.40;77.10;;;;;;4978242;28;20035;-64
2021/08/15 07:17:55;;;;;;;11.00;9.25;;;23.50;76.60;;;;;;4995196;28;20069;-64
2021/08/15 07:20:21;;;;;;;9.77;8.80;;;23.60;77.00;;;;;;4983425;28;20629;-63
2021/08/15 07:22:47;;;;;;;10.68;8.57;;;23.70;76.80;;;;;;4978351;28;20038;-64
2021/08/15 07:25:13;;;;;;;9.95;8.95;;;23.70;76.30;;;;;;4984094;28;20442;-64
2021/08/15 07:27:39;;;;;;;14.07;8.80;;;23.80;76.10;;;;;;4998337;28;20042;-64
2021/08/15 07:30:06;;;;;;;10.35;9.00;;;23.90;75.90;;;;;;4983594;28;20106;-64
2021/08/15 07:32:32;;;;;;;9.30;8.30;;;24.00;75.90;;;;;;4973446;28;20059;-64
2021/08/15 07:35:01;;;;;;;9.15;8.25;;;24.10;75.70;;;;;;4981865;28;20094;-64
2021/08/15 07:37:27;;;;;;;18.02;9.15;;;24.10;75.70;;;;;;4988906;28;20038;-64
2021/08/15 07:39:52;;;;;;;10.57;8.98;;;24.30;75.40;;;;;;4974332;28;20042;-64
2021/08/15 07:42:20;;;;;;;13.75;8.85;;;24.40;75.40;;;;;;4976721;28;20417;-63
2021/08/15 07:44:46;;;;;;;10.88;8.18;;;24.40;74.90;;;;;;4995772;28;20502;-64
2021/08/15 07:47:12;;;;;;;9.02;7.97;;;24.50;74.40;;;;;;4981626;28;20030;-64
2021/08/15 07:49:37;;;;;;;10.40;8.55;;;24.60;73.50;;;;;;4979877;28;20043;-63
2021/08/15 07:52:03;;;;;;;11.05;8.55;;;24.70;73.50;;;;;;4983479;28;20061;-63
2021/08/15 07:54:29;;;;;;;8.73;7.78;;;24.80;73.20;;;;;;4981930;28;20575;-63
2021/08/15 07:56:55;;;;;;;9.82;7.32;;;24.90;72.80;;;;;;4981711;28;20421;-64
2021/08/15 07:59:20;;;;;;;8.73;7.05;;;25.00;72.60;;;;;;4982565;28;20030;-64
2021/08/15 08:01:46;;;;;;;11.27;7.60;;;25.00;72.10;;;;;;4980101;28;20046;-64
2021/08/15 08:04:12;;;;;;;8.77;7.65;;;25.10;72.00;;;;;;4983823;28;20034;-63
2021/08/15 08:06:37;;;;;;;8.68;7.78;;;25.20;71.90;;;;;;4976092;28;20041;-64
2021/08/15 08:09:03;;;;;;;10.20;7.55;;;25.30;71.80;;;;;;4977491;28;20042;-63
2021/08/15 08:11:29;;;;;;;8.93;7.68;;;25.40;71.80;;;;;;4969855;28;20507;-64
2021/08/15 08:13:54;;;;;;;9.52;8.00;;;25.40;71.60;;;;;;4977568;28;20041;-64
2021/08/15 08:16:20;;;;;;;8.52;7.50;;;25.50;71.20;;;;;;4980606;28;20061;-64
2021/08/15 08:18:47;;;;;;;9.25;7.30;;;25.60;71.00;;;;;;4977620;28;20061;-64
2021/08/15 08:21:13;;;;;;;7.80;7.00;;;25.60;70.80;;;;;;4978479;28;20039;-64
2021/08/15 08:23:39;;;;;;;9.52;7.95;;;25.70;71.10;;;;;;4995639;28;20038;-64
2021/08/15 08:26:05;;;;;;;9.40;7.40;;;25.80;71.10;;;;;;4978041;28;20034;-64
2021/08/15 08:28:30;;;;;;;9.32;7.65;;;25.90;71.00;;;;;;4973486;28;20068;-64
2021/08/15 08:30:56;;;;;;;9.05;8.10;;;26.00;70.60;;;;;;4979638;28;20049;-64
2021/08/15 08:33:21;;;;;;;8.70;7.68;;;26.00;70.30;;;;;;4979387;28;20039;-64
2021/08/15 08:35:47;;;;;;;8.60;7.60;;;26.10;70.60;;;;;;4982212;28;20050;-64
2021/08/15 08:38:13;;;;;;;8.20;7.35;;;26.20;70.20;;;;;;4980512;28;20583;-64
2021/08/15 08:40:40;;;;;;;7.95;7.00;;;26.30;70.00;;;;;;4980878;28;20026;-64
2021/08/15 08:43:05;;;;;;;10.27;6.57;;;26.40;69.50;;;;;;4981842;28;20040;-64
2021/08/15 08:45:35;;;;;;;7.35;6.65;;;26.50;69.30;;;;;;4978454;28;20640;-64
2021/08/15 08:48:03;;;;;;;7.75;6.68;;;26.60;69.30;;;;;;4973183;28;20034;-64
2021/08/15 08:50:29;;;;;;;8.95;6.82;;;26.70;69.30;;;;;;4966094;28;20038;-64
2021/08/15 08:52:54;;;;;;;7.40;6.68;;;26.80;68.60;;;;;;4991359;28;20066;-64
2021/08/15 08:55:21;;;;;;;8.52;6.40;;;27.00;68.50;;;;;;4969392;28;20106;-64
2021/08/15 08:57:47;;;;;;;7.88;6.35;;;27.10;67.80;;;;;;4974149;28;20036;-64
2021/08/15 09:00:14;;;;;;;7.55;6.60;;;27.20;67.50;;;;;;4974755;28;20547;-64
2021/08/15 09:02:40;;;;;;;7.32;6.47;;;27.30;67.10;;;;;;4969767;28;20034;-64
2021/08/15 09:05:07;;;;;;;7.32;6.57;;;27.40;67.00;;;;;;4976259;28;20394;-64
2021/08/15 09:07:36;;;;;;;8.52;7.00;;;27.50;67.00;;;;;;4976274;28;20071;-64
2021/08/15 09:10:03;;;;;;;7.40;6.60;;;27.50;66.30;;;;;;4992103;28;20437;-64
2021/08/15 09:12:43;;;;;;;8.35;6.38;;;27.60;66.60;;;;;;4969512;28;20108;-63
2021/08/15 09:15:22;;;;;;;11.88;6.38;;;27.70;65.80;;;;;;4974869;28;20383;-63
2021/08/15 09:17:48;;;;;;;7.10;6.18;;;27.80;65.50;;;;;;4977245;28;20604;-63
2021/08/15 09:20:47;;;;;;;8.35;6.60;;;27.90;66.00;;;;;;4974337;28;20038;-63
2021/08/15 09:23:36;;;;;;;8.65;6.68;;;28.00;65.10;;;;;;4975303;28;20045;-64
2021/08/15 09:26:20;;;;;;;7.35;6.35;;;28.10;64.80;;;;;;4996354;28;20469;-64
2021/08/15 09:28:49;;;;;;;6.97;6.28;;;28.20;64.40;;;;;;4976816;28;20148;-64
2021/08/15 09:31:25;;;;;;;9.10;6.47;;;28.30;64.00;;;;;;4979134;28;20038;-64
2021/08/15 09:33:56;;;;;;;9.13;6.18;;;28.30;63.50;;;;;;4979865;28;20455;-64
2021/08/15 09:36:27;;;;;;;8.60;6.40;;;28.40;63.40;;;;;;4982580;28;20409;-64
2021/08/15 09:39:02;;;;;;;9.13;6.32;;;28.50;63.20;;;;;;4977159;28;20126;-64
2021/08/15 09:41:30;;;;;;;10.93;6.28;;;28.60;63.70;;;;;;4976442;28;20046;-64
2021/08/15 09:44:16;;;;;;;9.40;6.53;;;28.60;63.20;;;;;;4975542;28;20026;-64
2021/08/15 09:47:09;;;;;;;8.15;6.00;;;28.70;62.60;;;;;;4974001;28;20509;-64
2021/08/15 09:49:37;;;;;;;7.93;5.88;;;28.80;62.90;;;;;;4979026;28;20043;-64
2021/08/15 09:52:04;;;;;;;9.68;6.10;;;28.90;63.00;;;;;;4973736;28;20038;-64
2021/08/15 09:54:31;;;;;;;8.18;6.43;;;28.90;62.50;;;;;;4993550;28;20035;-64
2021/08/15 09:56:57;;;;;;;9.90;6.63;;;29.00;62.20;;;;;;4995463;28;20037;-64
2021/08/15 09:59:25;;;;;;;8.75;6.18;;;29.00;62.10;;;;;;4980502;28;20034;-64
2021/08/15 10:01:55;;;;;;;8.70;6.50;;;29.10;61.80;;;;;;4976464;28;20041;-64
2021/08/15 10:04:22;;;;;;;11.98;6.50;;;29.20;61.10;;;;;;4978281;28;20540;-64
2021/08/15 10:06:50;;;;;;;7.93;6.07;;;29.20;61.10;;;;;;4976018;28;20035;-64
2021/08/15 10:09:16;;;;;;;10.23;6.32;;;29.30;61.40;;;;;;4977235;28;20093;-64
2021/08/15 10:11:43;;;;;;;7.22;6.38;;;29.40;61.00;;;;;;4968864;28;20588;-64
2021/08/15 10:14:10;;;;;;;10.48;6.88;;;29.40;60.50;;;;;;4973276;28;20030;-64
2021/08/15 10:16:59;;;;;;;9.45;6.40;;;29.50;59.80;;;;;;4975838;28;20521;-64
2021/08/15 10:19:43;;;;;;;8.35;6.40;;;29.60;59.30;;;;;;4964265;28;20078;-64
2021/08/15 10:22:09;;;;;;;9.48;6.75;;;29.60;59.70;;;;;;4969704;28;21039;-64
2021/08/15 10:24:48;;;;;;;7.15;6.00;;;29.70;60.40;;;;;;4969345;28;20049;-64
2021/08/15 10:27:41;;;;;;;7.13;6.40;;;29.70;58.80;;;;;;4956463;28;20067;-62
2021/08/15 10:30:13;;;;;;;13.95;7.13;;;29.70;59.40;;;;;;4965697;28;20046;-65
2021/08/15 10:32:59;;;;;;;9.32;6.15;;;29.80;59.00;;;;;;4963443;28;20105;-64
2021/08/15 10:35:24;;;;;;;8.32;6.57;;;29.80;59.70;;;;;;4964505;28;20026;-64
2021/08/15 10:38:00;;;;;;;8.52;6.30;;;29.80;59.70;;;;;;4971080;28;20034;-64
2021/08/15 10:40:41;;;;;;;11.18;6.43;;;29.80;59.30;;;;;;4964718;28;20121;-64
2021/08/15 10:43:06;;;;;;;8.07;5.88;;;29.80;59.20;;;;;;4965984;28;20035;-64
2021/08/15 10:45:32;;;;;;;10.68;6.22;;;29.80;60.60;;;;;;4971312;28;20038;-64
2021/08/15 10:48:12;;;;;;;8.77;6.25;;;29.80;61.70;;;;;;4970495;28;20045;-64
2021/08/15 10:50:53;;;;;;;11.35;6.07;;;29.80;61.30;;;;;;4967548;28;20035;-64
2021/08/15 10:53:28;;;;;;;7.82;6.20;;;29.70;61.30;;;;;;4969720;28;20038;-63
2021/08/15 10:56:08;;;;;;;11.90;7.03;;;29.70;63.50;;;;;;4970591;28;20031;-63
2021/08/15 10:58:44;;;;;;;8.57;6.50;;;29.70;63.50;;;;;;4973984;28;20452;-63
2021/08/15 11:01:17;;;;;;;8.70;6.45;;;29.60;63.30;;;;;;4991062;28;20035;-64
2021/08/15 11:03:51;;;;;;;8.20;6.63;;;29.60;64.00;;;;;;4977550;28;20045;-64
2021/08/15 11:06:36;;;;;;;8.10;6.80;;;29.50;64.60;;;;;;4980877;28;20034;-63
2021/08/15 11:09:05;;;;;;;8.95;7.20;;;29.40;63.20;;;;;;4971142;28;20042;-63
2021/08/15 11:11:37;;;;;;;9.40;6.95;;;29.40;64.70;;;;;;4975460;28;20046;-63
2021/08/15 11:14:17;;;;;;;7.22;6.35;;;29.40;65.00;;;;;;4978264;28;20487;-63
2021/08/15 11:16:44;;;;;;;10.32;6.82;;;29.40;65.00;;;;;;4972789;28;20038;-63
2021/08/15 11:19:13;;;;;;;8.65;6.65;;;29.40;64.30;;;;;;4972608;28;20058;-63
2021/08/15 11:22:02;;;;;;;8.05;6.32;;;29.40;64.50;;;;;;4984358;28;20388;-63
2021/08/15 11:24:28;;;;;;;10.63;6.60;;;29.40;63.30;;;;;;4972210;28;20042;-64
2021/08/15 11:26:55;;;;;;;13.15;6.97;;;29.40;62.60;;;;;;4972461;28;20078;-63
2021/08/15 11:29:21;;;;;;;8.98;6.53;;;29.50;62.30;;;;;;4970225;28;20039;-63
2021/08/15 11:31:47;;;;;;;7.70;6.43;;;29.50;61.70;;;;;;4971604;28;20426;-64
2021/08/15 11:34:13;;;;;;;10.45;6.55;;;29.50;61.40;;;;;;4977713;28;20026;-63
2021/08/15 11:36:39;;;;;;;9.13;6.35;;;29.60;61.60;;;;;;4989295;28;20066;-64
2021/08/15 11:39:06;;;;;;;9.93;6.43;;;29.60;61.80;;;;;;4980096;28;20027;-64
2021/08/15 11:41:33;;;;;;;11.00;5.72;;;29.60;61.40;;;;;;4985223;28;20121;-64
2021/08/15 11:43:59;;;;;;;9.90;5.85;;;29.70;60.60;;;;;;4985496;28;20038;-64
2021/08/15 11:46:24;;;;;;;7.85;5.75;;;29.70;60.00;;;;;;4983865;28;20057;-63
2021/08/15 11:48:50;;;;;;;9.77;5.88;;;29.70;59.80;;;;;;4985591;28;20113;-64
2021/08/15 11:51:16;;;;;;;8.68;5.40;;;29.70;60.00;;;;;;4986426;28;20038;-64
2021/08/15 11:53:44;;;;;;;8.13;5.10;;;29.80;59.60;;;;;;4989849;28;20218;-64
2021/08/15 11:56:12;;;;;;;7.20;5.00;;;29.80;58.30;;;;;;4987781;28;20032;-64
2021/08/15 11:58:45;;;;;;;7.63;4.57;;;29.80;58.30;;;;;;4987589;28;20030;-64
2021/08/15 12:01:11;;;;;;;10.20;5.00;;;29.80;57.20;;;;;;4983831;28;20034;-64
2021/08/15 12:03:37;;;;;;;9.23;5.30;;;29.90;58.30;;;;;;4985412;28;20405;-64
2021/08/15 12:06:08;;;;;;;8.15;5.65;;;29.90;58.40;;;;;;4982737;28;20046;-64
2021/08/15 12:08:43;;;;;;;7.07;5.22;;;29.90;57.70;;;;;;4979971;28;20053;-64
2021/08/15 12:11:39;;;;;;;7.93;5.40;;;30.00;58.30;;;;;;4980738;28;20034;-63
2021/08/15 12:14:08;;;;;;;11.35;5.65;;;30.00;57.50;;;;;;4986505;28;20041;-64
2021/08/15 12:16:35;;;;;;;9.55;5.82;;;30.00;58.00;;;;;;4970996;28;20039;-64
2021/08/15 12:19:02;;;;;;;11.00;5.93;;;30.00;58.80;;;;;;4978988;28;20165;-64
2021/08/15 12:21:36;;;;;;;11.43;6.60;;;30.00;58.70;;;;;;4983689;28;20038;-64
2021/08/15 12:24:16;;;;;;;10.95;5.75;;;30.00;58.70;;;;;;4985989;28;20038;-64
2021/08/15 12:27:02;;;;;;;10.75;5.88;;;30.00;58.90;;;;;;4983157;28;20140;-64
2021/08/15 12:29:34;;;;;;;11.65;5.65;;;30.00;58.60;;;;;;4981730;28;20034;-64
2021/08/15 12:32:08;;;;;;;9.85;5.90;;;30.00;58.00;;;;;;4977141;28;20422;-64
2021/08/15 12:34:58;;;;;;;10.13;5.38;;;29.90;57.10;;;;;;4984606;28;20576;-64
2021/08/15 12:37:43;;;;;;;10.40;5.80;;;29.90;57.00;;;;;;4984676;28;20026;-64
2021/08/15 12:40:15;;;;;;;9.35;5.80;;;29.80;57.60;;;;;;4987613;28;20433;-64
2021/08/15 12:42:54;;;;;;;9.60;5.75;;;29.70;58.20;;;;;;4986311;28;20126;-64
2021/08/15 12:45:40;;;;;;;9.45;6.03;;;29.60;60.00;;;;;;4985388;28;20034;-63